createdAt,value
2022-09-11T00:01:18.582Z,79.11
2022-09-11T00:08:21.204Z,80.28
2022-09-11T00:15:22.860Z,80.71
2022-09-11T00:22:24.420Z,81.01
2022-09-11T00:29:26.091Z,81.27
2022-09-11T00:36:29.149Z,81.77
2022-09-11T00:43:59.607Z,82.39
2022-09-11T00:51:01.511Z,82.92
2022-09-11T00:58:08.011Z,83.53
2022-09-11T01:05:09.692Z,84.04
2022-09-11T01:12:28.370Z,84.19
2022-09-11T01:19:46.830Z,84.16
2022-09-11T01:27:21.767Z,83.86
2022-09-11T01:34:29.670Z,84.00
2022-09-11T01:41:45.967Z,84.46
2022-09-11T01:48:49.037Z,84.43
2022-09-11T01:55:57.099Z,84.13
2022-09-11T02:03:00.870Z,84.28
2022-09-11T02:10:14.577Z,84.34
2022-09-11T02:17:40.735Z,84.44
2022-09-11T02:24:42.339Z,84.68
2022-09-11T02:31:44.067Z,84.94
2022-09-11T02:39:04.573Z,85.72
2022-09-11T02:46:16.685Z,85.27
2022-09-11T02:53:30.976Z,85.30
2022-09-11T03:00:32.985Z,85.94
2022-09-11T03:07:35.563Z,86.18
2022-09-11T03:14:38.100Z,87.21
2022-09-11T03:21:40.392Z,87.28
2022-09-11T03:28:42.413Z,86.92
2022-09-11T03:35:44.748Z,87.55
2022-09-11T03:42:46.723Z,87.68
2022-09-11T03:49:48.591Z,87.57
2022-09-11T03:56:51.027Z,88.05
2022-09-11T04:03:52.734Z,88.24
2022-09-11T04:11:11.495Z,87.31
2022-09-11T04:18:13.938Z,87.61
2022-09-11T04:25:15.990Z,88.43
2022-09-11T04:32:18.305Z,89.19
2022-09-11T04:39:19.986Z,89.54
2022-09-11T04:46:24.189Z,90.36
2022-09-11T04:53:25.975Z,91.70
2022-09-11T05:00:28.115Z,92.17
2022-09-11T05:07:31.992Z,92.72
2022-09-11T05:14:35.798Z,92.88
2022-09-11T05:21:38.276Z,92.30
2022-09-11T05:28:40.212Z,92.49
2022-09-11T05:35:42.002Z,92.44
2022-09-11T05:42:43.641Z,93.15
2022-09-11T05:49:46.101Z,93.48
2022-09-11T05:56:47.723Z,93.20
2022-09-11T06:03:57.760Z,92.90
2022-09-11T06:11:02.084Z,93.32
2022-09-11T06:18:07.153Z,92.95
2022-09-11T06:25:09.144Z,92.81
2022-09-11T06:32:11.672Z,92.60
2022-09-11T06:39:14.683Z,92.46
2022-09-11T06:46:19.991Z,91.13
2022-09-11T06:53:22.545Z,90.96
2022-09-11T07:00:28.599Z,90.30
2022-09-11T07:07:30.722Z,89.36
2022-09-11T07:14:32.910Z,89.63
2022-09-11T07:21:44.292Z,89.24
2022-09-11T07:28:48.789Z,88.81
2022-09-11T07:35:52.305Z,88.79
2022-09-11T07:42:54.265Z,87.52
2022-09-11T07:49:56.820Z,85.22
2022-09-11T07:56:59.519Z,84.79
2022-09-11T08:04:06.101Z,83.86
2022-09-11T08:11:17.195Z,82.72
2022-09-11T08:18:21.081Z,79.66
2022-09-11T08:25:23.796Z,78.33
2022-09-11T08:32:25.763Z,77.74
2022-09-11T08:39:27.533Z,78.04
2022-09-11T08:46:40.630Z,78.20
2022-09-11T08:53:43.242Z,77.79
2022-09-11T09:00:59.605Z,78.20
2022-09-11T09:08:04.901Z,77.10
2022-09-11T09:15:42.335Z,77.14
2022-09-11T09:22:55.634Z,77.78
2022-09-11T09:30:00.151Z,77.04
2022-09-11T09:37:05.370Z,75.15
2022-09-11T09:44:19.631Z,73.67
2022-09-11T09:51:21.459Z,73.37
2022-09-11T09:58:29.798Z,74.42
2022-09-11T10:05:33.090Z,74.97
2022-09-11T10:12:35.900Z,71.80
2022-09-11T10:19:38.922Z,69.72
2022-09-11T10:26:50.533Z,68.41
2022-09-11T10:33:57.011Z,62.42
2022-09-11T10:41:14.182Z,58.63
2022-09-11T10:48:17.267Z,56.91
2022-09-11T10:55:19.275Z,59.21
2022-09-11T11:02:31.714Z,61.28
2022-09-11T11:09:42.583Z,60.77
2022-09-11T11:17:02.917Z,62.16
2022-09-11T11:24:55.821Z,64.21
2022-09-11T11:32:37.134Z,56.58
2022-09-11T11:40:00.606Z,47.51
2022-09-11T11:47:02.422Z,44.37
2022-09-11T11:54:07.233Z,42.00
2022-09-11T12:01:14.423Z,44.25
2022-09-11T12:08:16.612Z,43.55
2022-09-11T12:15:22.654Z,45.16
2022-09-11T12:22:33.037Z,46.11
2022-09-11T12:29:43.552Z,48.88
2022-09-11T12:36:49.966Z,51.91
2022-09-11T12:43:51.589Z,53.62
2022-09-11T12:50:54.258Z,58.32
2022-09-11T12:57:57.033Z,58.97
2022-09-11T13:04:58.694Z,55.87
2022-09-11T13:12:21.486Z,56.23
2022-09-11T13:19:23.511Z,55.90
2022-09-11T13:26:26.320Z,54.21
2022-09-11T13:33:28.999Z,54.38
2022-09-11T13:40:54.751Z,55.13
2022-09-11T13:47:58.298Z,54.83
2022-09-11T13:55:01.603Z,55.03
2022-09-11T14:02:16.645Z,54.49
2022-09-11T14:09:18.663Z,49.85
2022-09-11T14:16:23.985Z,46.11
2022-09-11T14:23:29.981Z,44.52
2022-09-11T14:30:37.380Z,40.88
2022-09-11T14:37:45.579Z,39.02
2022-09-11T14:44:47.692Z,38.74
2022-09-11T14:51:58.204Z,38.58
2022-09-11T14:58:59.854Z,40.43
2022-09-11T15:06:01.427Z,42.56
2022-09-11T15:13:03.091Z,47.67
2022-09-11T15:20:09.031Z,52.50
2022-09-11T15:27:10.924Z,58.71
2022-09-11T15:34:12.675Z,62.86
2022-09-11T15:41:14.281Z,65.17
2022-09-11T15:48:17.016Z,66.74
2022-09-11T15:55:18.616Z,68.83
2022-09-11T16:02:21.537Z,69.78
2022-09-11T16:09:27.836Z,66.76
2022-09-11T16:16:29.397Z,68.03
2022-09-11T16:23:31.028Z,71.66
2022-09-11T16:30:43.310Z,71.95
2022-09-11T16:37:45.996Z,72.04
2022-09-11T16:44:48.160Z,71.83
2022-09-11T16:51:49.997Z,71.91
2022-09-11T16:58:51.767Z,72.16
2022-09-11T17:05:54.550Z,72.49
2022-09-11T17:12:56.122Z,73.50
2022-09-11T17:19:59.325Z,74.92
2022-09-11T17:27:01.730Z,75.88
2022-09-11T17:34:03.300Z,75.98
2022-09-11T17:41:06.171Z,76.07
2022-09-11T17:48:08.662Z,73.51
2022-09-11T17:55:11.080Z,74.80
2022-09-11T18:02:14.337Z,76.72
2022-09-11T18:09:16.206Z,77.74
2022-09-11T18:16:17.866Z,78.51
2022-09-11T18:23:20.200Z,78.68
2022-09-11T18:30:21.753Z,79.35
2022-09-11T18:37:23.387Z,80.04
2022-09-11T18:44:25.126Z,80.45
2022-09-11T18:51:27.041Z,81.77
2022-09-11T18:58:33.469Z,83.19
2022-09-11T19:05:35.053Z,83.52
2022-09-11T19:12:36.799Z,83.45
2022-09-11T19:19:38.337Z,84.07
2022-09-11T19:26:42.261Z,83.92
2022-09-11T19:33:46.562Z,83.48
2022-09-11T19:40:48.877Z,83.82
2022-09-11T19:47:50.821Z,83.84
2022-09-11T19:54:52.469Z,84.02
2022-09-11T20:01:54.247Z,84.53
2022-09-11T20:09:19.867Z,85.13
2022-09-11T20:16:20.107Z,85.55
2022-09-11T20:23:21.691Z,84.90
2022-09-11T20:30:24.985Z,85.34
2022-09-11T20:37:26.525Z,85.86
2022-09-11T20:44:28.067Z,85.91
2022-09-11T20:51:29.657Z,86.15
2022-09-11T20:58:31.295Z,87.26
2022-09-11T21:05:32.848Z,87.62
2022-09-11T21:12:34.422Z,87.85
2022-09-11T21:19:36.022Z,88.17
2022-09-11T21:26:37.694Z,88.77
2022-09-11T21:33:39.349Z,89.25
2022-09-11T21:40:40.895Z,89.37
2022-09-11T21:47:42.527Z,89.24
2022-09-11T21:54:44.076Z,88.23
2022-09-11T22:01:45.700Z,87.44
2022-09-11T22:08:47.371Z,86.25
2022-09-11T22:15:49.756Z,85.00
2022-09-11T22:22:56.367Z,84.42
2022-09-11T22:29:57.909Z,83.99
2022-09-11T22:36:59.833Z,83.52
2022-09-11T22:44:01.514Z,82.46
2022-09-11T22:51:03.099Z,81.96
2022-09-11T22:58:04.643Z,81.42
2022-09-11T23:05:25.479Z,80.32
2022-09-11T23:12:27.043Z,79.60
2022-09-11T23:19:29.419Z,80.34
2022-09-11T23:26:31.014Z,80.91
2022-09-11T23:33:32.576Z,81.00
2022-09-11T23:40:34.416Z,80.87
2022-09-11T23:47:35.973Z,81.89
2022-09-11T23:54:37.577Z,82.06
